Aeroporto :
LOGIN :

Iscrizione | Disclaimer

   EN    FR    IT 

 










Sommario :    VFR   VFR Marginale   IFR   IFR Intensivo   IFR Molto Intensivo
Visibilità : 
Base nubi : 
>= 8 km
>= 3000ft
5 / 8 km
1000 / 3000 ft
1500m / 5 km
500 / 1000 ft
800 / 1500m
200 / 500 ft
< 800m
< 200 ft
Simboli :   Temporali  Nebbia  Neve Forte  Precipitazioni Forti  Vento > 20 kt
SIGMETs :   Varie  Temporali  Ghiacco  Turbolenza  Onda orograficha  Ceneri Vulcaniche






- Altitudine del aeroporto : 141 ft
- Codice IATA : SKS


EKSP - Srydstrup Vojens

ULTIMO METAR :
  • 171850Z 21010KT 4000 -RA BR BKN004 07/06 Q1010

METARs OBSOLETI :
  • 171820Z 21010KT 5000 -DZRA BR BKN005 07/06 Q1010
  • 171808Z 21011KT 5000 -DZRA BR BKN005 07/06 Q1010
  • 171746Z 21010KT 6000 -RA BKN006 07/06 Q1010
  • 171720Z 21011KT 9000 -RA BKN008 08/06 Q1010
  • 171716Z 21010KT 9999 BKN008 08/06 Q1010
  • 171650Z 20008KT 9999 BKN010 08/06 Q1010

TAF TAF EKSP
Valido dal 17 a 18 ore il 18 a 18 ore UTC


171721Z 1718/1818 19012KT 6000 -RA BKN008
BECMG 1718/1720 1800 RA BR BKN003
BECMG 1720/1722 22012KT 4000 BR BKN008
TEMPO 1722/1804 6000 NSW BKN015
FM180400 24015KT 9999 BKN020
TEMPO 1804/1808 6000 -SHRA BKN008 SCT020TCU
TEMPO 1808/1818 4000 SHRA BKN012 SCT020CB
PROB40 1809/1818 25015G25KT SHGS



MetMap, La meteo Aeronautica in un colpo d'occhio ! - Copyright ORBIFLY Dicembre 2007 - Disclaimer

ORBIFLY MET'MAP TEAM :

Programmazione e sviluppo : Alexandra Zaïnal
Concezione : Baudouin d'Aumeries
Aiuto per la programmazione : Marc-Olivier Méhu
Supporto tecnico e logistico : Manuel Goepfert
Aiuto per la traduzione : Arnaldo La Scala

Contatto : metmap@orbifly.com




FONTI E CREDITI :

   NOAA